sensor_id;sensor_type;location;lat;lon;timestamp;temperature;humidity
354;DHT22;165;53.592;10.044;2023-03-03T06:04:20;1.70;99.90
354;DHT22;165;53.592;10.044;2023-03-03T06:06:46;1.60;99.90
354;DHT22;165;53.592;10.044;2023-03-03T06:09:11;1.60;99.90
354;DHT22;165;53.592;10.044;2023-03-03T06:11:37;1.70;99.90
354;DHT22;165;53.592;10.044;2023-03-03T06:14:02;1.70;99.90
354;DHT22;165;53.592;10.044;2023-03-03T06:16:28;1.70;99.90
354;DHT22;165;53.592;10.044;2023-03-03T06:18:53;1.70;99.90
354;DHT22;165;53.592;10.044;2023-03-03T06:21:19;1.80;99.90
354;DHT22;165;53.592;10.044;2023-03-03T06:23:44;1.80;99.90
354;DHT22;165;53.592;10.044;2023-03-03T06:26:10;1.80;99.90
354;DHT22;165;53.592;10.044;2023-03-03T06:28:35;1.80;99.90
354;DHT22;165;53.592;10.044;2023-03-03T06:31:01;1.70;99.90
354;DHT22;165;53.592;10.044;2023-03-03T06:33:26;1.70;99.90
354;DHT22;165;53.592;10.044;2023-03-03T06:35:53;1.70;99.90
354;DHT22;165;53.592;10.044;2023-03-03T06:38:18;1.80;99.90
354;DHT22;165;53.592;10.044;2023-03-03T06:40:45;1.80;99.90
354;DHT22;165;53.592;10.044;2023-03-03T06:43:11;1.80;99.90
354;DHT22;165;53.592;10.044;2023-03-03T06:45:37;1.90;99.90
354;DHT22;165;53.592;10.044;2023-03-03T06:48:02;1.80;99.90
354;DHT22;165;53.592;10.044;2023-03-03T06:50:28;1.80;99.90
354;DHT22;165;53.592;10.044;2023-03-03T06:55:38;1.80;99.90
354;DHT22;165;53.592;10.044;2023-03-03T06:58:18;1.80;99.90
354;DHT22;165;53.592;10.044;2023-03-03T07:00:56;2.00;99.90
354;DHT22;165;53.592;10.044;2023-03-03T07:03:23;1.90;99.90
354;DHT22;165;53.592;10.044;2023-03-03T07:05:49;2.00;99.90
354;DHT22;165;53.592;10.044;2023-03-03T07:08:19;1.90;99.90
354;DHT22;165;53.592;10.044;2023-03-03T07:10:46;2.00;99.90
354;DHT22;165;53.592;10.044;2023-03-03T07:13:23;2.10;99.90
354;DHT22;165;53.592;10.044;2023-03-03T07:15:51;2.20;99.90
354;DHT22;165;53.592;10.044;2023-03-03T07:18:34;2.30;99.90
354;DHT22;165;53.592;10.044;2023-03-03T07:21:27;2.30;99.90
354;DHT22;165;53.592;10.044;2023-03-03T07:23:55;2.30;99.90
354;DHT22;165;53.592;10.044;2023-03-03T07:26:27;2.40;99.90
354;DHT22;165;53.592;10.044;2023-03-03T07:28:57;2.40;99.90
354;DHT22;165;53.592;10.044;2023-03-03T07:31:34;2.50;99.90
354;DHT22;165;53.592;10.044;2023-03-03T07:34:27;2.70;99.90
354;DHT22;165;53.592;10.044;2023-03-03T07:37:08;2.70;99.90
354;DHT22;165;53.592;10.044;2023-03-03T07:39:37;2.60;99.90
354;DHT22;165;53.592;10.044;2023-03-03T07:42:25;2.60;99.90
354;DHT22;165;53.592;10.044;2023-03-03T07:44:53;2.80;99.90
354;DHT22;165;53.592;10.044;2023-03-03T07:47:37;2.70;99.90
354;DHT22;165;53.592;10.044;2023-03-03T07:50:18;2.80;99.90
354;DHT22;165;53.592;10.044;2023-03-03T07:52:56;2.80;99.90
354;DHT22;165;53.592;10.044;2023-03-03T07:55:30;2.80;99.90
354;DHT22;165;53.592;10.044;2023-03-03T08:03:14;2.80;99.90
354;DHT22;165;53.592;10.044;2023-03-03T08:05:42;2.80;99.90
354;DHT22;165;53.592;10.044;2023-03-03T08:10:40;2.90;99.90
354;DHT22;165;53.592;10.044;2023-03-03T08:18:47;2.90;99.90
354;DHT22;165;53.592;10.044;2023-03-03T08:24:34;2.90;99.90
354;DHT22;165;53.592;10.044;2023-03-03T08:27:00;3.00;99.90
354;DHT22;165;53.592;10.044;2023-03-03T08:29:25;3.10;99.90
354;DHT22;165;53.592;10.044;2023-03-03T08:31:51;3.20;99.90
354;DHT22;165;53.592;10.044;2023-03-03T08:34:25;3.10;99.90
354;DHT22;165;53.592;10.044;2023-03-03T08:36:51;3.20;99.90
354;DHT22;165;53.592;10.044;2023-03-03T08:39:19;3.40;99.90
354;DHT22;165;53.592;10.044;2023-03-03T08:41:44;3.50;99.90
354;DHT22;165;53.592;10.044;2023-03-03T08:44:10;3.60;99.90
354;DHT22;165;53.592;10.044;2023-03-03T08:46:36;3.70;99.90
354;DHT22;165;53.592;10.044;2023-03-03T08:49:01;3.70;99.90
354;DHT22;165;53.592;10.044;2023-03-03T08:51:28;3.90;99.90
354;DHT22;165;53.592;10.044;2023-03-03T08:53:53;4.10;99.90
354;DHT22;165;53.592;10.044;2023-03-03T08:56:18;4.30;99.90
354;DHT22;165;53.592;10.044;2023-03-03T08:58:50;4.40;99.90
354;DHT22;165;53.592;10.044;2023-03-03T09:01:16;4.50;99.90
354;DHT22;165;53.592;10.044;2023-03-03T09:04:04;4.40;99.90
354;DHT22;165;53.592;10.044;2023-03-03T15:41:05;7.50;99.90
354;DHT22;165;53.592;10.044;2023-03-03T15:43:43;7.40;99.90
354;DHT22;165;53.592;10.044;2023-03-03T15:49:30;7.40;99.90
354;DHT22;165;53.592;10.044;2023-03-03T15:52:21;7.30;99.90
354;DHT22;165;53.592;10.044;2023-03-03T16:02:53;7.00;99.90
354;DHT22;165;53.592;10.044;2023-03-03T16:05:28;6.90;99.90
354;DHT22;165;53.592;10.044;2023-03-03T16:18:28;6.70;99.90
354;DHT22;165;53.592;10.044;2023-03-03T16:23:45;6.80;99.90
354;DHT22;165;53.592;10.044;2023-03-03T16:29:17;6.80;99.90
354;DHT22;165;53.592;10.044;2023-03-03T16:31:58;6.70;99.90
354;DHT22;165;53.592;10.044;2023-03-03T16:37:26;6.60;99.90
354;DHT22;165;53.592;10.044;2023-03-03T16:40:14;6.50;99.90
354;DHT22;165;53.592;10.044;2023-03-03T16:42:42;6.40;99.90
354;DHT22;165;53.592;10.044;2023-03-03T16:45:29;6.40;99.90
354;DHT22;165;53.592;10.044;2023-03-03T16:48:12;6.40;99.90
354;DHT22;165;53.592;10.044;2023-03-03T16:51:10;6.40;99.90
354;DHT22;165;53.592;10.044;2023-03-03T16:53:51;6.50;99.90
354;DHT22;165;53.592;10.044;2023-03-03T16:56:31;6.40;99.90
354;DHT22;165;53.592;10.044;2023-03-03T16:59:18;6.40;99.90
354;DHT22;165;53.592;10.044;2023-03-03T17:04:46;6.40;99.90
354;DHT22;165;53.592;10.044;2023-03-03T17:18:46;6.30;99.90
354;DHT22;165;53.592;10.044;2023-03-03T17:21:43;6.20;99.90
354;DHT22;165;53.592;10.044;2023-03-03T17:27:33;6.30;99.90
354;DHT22;165;53.592;10.044;2023-03-03T17:30:09;6.20;99.90
354;DHT22;165;53.592;10.044;2023-03-03T17:35:36;6.10;99.90
354;DHT22;165;53.592;10.044;2023-03-03T17:43:22;6.10;99.90
354;DHT22;165;53.592;10.044;2023-03-03T17:45:51;6.00;99.90
354;DHT22;165;53.592;10.044;2023-03-03T17:51:41;6.00;99.90
354;DHT22;165;53.592;10.044;2023-03-03T17:54:23;6.10;99.90
354;DHT22;165;53.592;10.044;2023-03-03T17:57:08;6.10;99.90
354;DHT22;165;53.592;10.044;2023-03-03T18:05:21;6.10;99.90
354;DHT22;165;53.592;10.044;2023-03-03T18:08:00;6.10;99.90
354;DHT22;165;53.592;10.044;2023-03-03T18:13:38;6.00;99.90
354;DHT22;165;53.592;10.044;2023-03-03T18:21:51;6.10;99.90
354;DHT22;165;53.592;10.044;2023-03-03T18:24:37;6.00;99.90
354;DHT22;165;53.592;10.044;2023-03-03T18:30:20;6.00;99.90
354;DHT22;165;53.592;10.044;2023-03-03T18:35:34;6.00;99.90
354;DHT22;165;53.592;10.044;2023-03-03T18:40:55;5.90;99.90
354;DHT22;165;53.592;10.044;2023-03-03T19:05:03;5.30;99.90
354;DHT22;165;53.592;10.044;2023-03-03T19:07:45;5.30;99.90
354;DHT22;165;53.592;10.044;2023-03-03T19:12:53;5.30;99.90
354;DHT22;165;53.592;10.044;2023-03-03T19:15:43;5.40;99.90
354;DHT22;165;53.592;10.044;2023-03-03T19:23:25;5.30;99.90
354;DHT22;165;53.592;10.044;2023-03-03T19:29:14;5.30;99.90
354;DHT22;165;53.592;10.044;2023-03-03T19:39:37;5.00;99.90
354;DHT22;165;53.592;10.044;2023-03-03T19:42:45;5.00;99.90
354;DHT22;165;53.592;10.044;2023-03-03T19:45:56;4.90;99.90
354;DHT22;165;53.592;10.044;2023-03-03T19:48:47;4.90;99.90
354;DHT22;165;53.592;10.044;2023-03-03T19:51:42;4.90;99.90
354;DHT22;165;53.592;10.044;2023-03-03T19:56:47;4.80;99.90
354;DHT22;165;53.592;10.044;2023-03-03T20:00:00;4.80;99.90
354;DHT22;165;53.592;10.044;2023-03-03T20:08:02;4.90;99.90
354;DHT22;165;53.592;10.044;2023-03-03T20:10:49;5.00;99.90
354;DHT22;165;53.592;10.044;2023-03-03T20:13:41;5.00;99.90
354;DHT22;165;53.592;10.044;2023-03-03T20:16:16;5.00;99.90
354;DHT22;165;53.592;10.044;2023-03-03T20:21:31;5.00;99.90
354;DHT22;165;53.592;10.044;2023-03-03T20:26:51;5.20;99.90
354;DHT22;165;53.592;10.044;2023-03-03T20:32:41;5.20;99.90
354;DHT22;165;53.592;10.044;2023-03-03T20:46:33;5.30;99.90
354;DHT22;165;53.592;10.044;2023-03-03T20:52:18;5.40;99.90
354;DHT22;165;53.592;10.044;2023-03-03T20:57:59;5.40;99.90
354;DHT22;165;53.592;10.044;2023-03-03T21:00:28;5.50;99.90
354;DHT22;165;53.592;10.044;2023-03-03T21:03:28;5.50;99.90
354;DHT22;165;53.592;10.044;2023-03-03T21:08:49;5.60;99.90
354;DHT22;165;53.592;10.044;2023-03-03T21:11:18;5.60;99.90
354;DHT22;165;53.592;10.044;2023-03-03T21:13:51;5.60;99.90
354;DHT22;165;53.592;10.044;2023-03-03T21:19:12;5.60;99.90
354;DHT22;165;53.592;10.044;2023-03-03T21:21:48;5.60;99.90
354;DHT22;165;53.592;10.044;2023-03-03T21:24:13;5.60;99.90
354;DHT22;165;53.592;10.044;2023-03-03T21:26:59;5.60;99.90
354;DHT22;165;53.592;10.044;2023-03-03T21:29:28;5.70;99.90
354;DHT22;165;53.592;10.044;2023-03-03T21:34:32;5.70;99.90
354;DHT22;165;53.592;10.044;2023-03-03T21:36:59;5.70;99.90
354;DHT22;165;53.592;10.044;2023-03-03T21:39:26;5.80;99.90
354;DHT22;165;53.592;10.044;2023-03-03T21:42:07;5.70;99.90
354;DHT22;165;53.592;10.044;2023-03-03T21:44:49;5.70;99.90
354;DHT22;165;53.592;10.044;2023-03-03T21:49:43;5.70;99.90
354;DHT22;165;53.592;10.044;2023-03-03T21:52:10;5.70;99.90
354;DHT22;165;53.592;10.044;2023-03-03T21:54:36;5.80;99.90
354;DHT22;165;53.592;10.044;2023-03-03T21:57:01;5.70;99.90
354;DHT22;165;53.592;10.044;2023-03-03T21:59:27;5.80;99.90
354;DHT22;165;53.592;10.044;2023-03-03T22:01:52;5.80;99.90
354;DHT22;165;53.592;10.044;2023-03-03T22:04:18;5.80;99.90
354;DHT22;165;53.592;10.044;2023-03-03T22:06:43;5.80;99.90
354;DHT22;165;53.592;10.044;2023-03-03T22:09:09;5.70;99.90
354;DHT22;165;53.592;10.044;2023-03-03T22:11:35;5.80;99.90
354;DHT22;165;53.592;10.044;2023-03-03T22:14:00;5.70;99.90
354;DHT22;165;53.592;10.044;2023-03-03T22:16:26;5.70;99.90
354;DHT22;165;53.592;10.044;2023-03-03T22:18:51;5.80;99.90
354;DHT22;165;53.592;10.044;2023-03-03T22:21:17;5.80;99.90
354;DHT22;165;53.592;10.044;2023-03-03T22:23:42;5.80;99.90
354;DHT22;165;53.592;10.044;2023-03-03T22:26:09;5.70;99.90
354;DHT22;165;53.592;10.044;2023-03-03T22:28:34;5.80;99.90
354;DHT22;165;53.592;10.044;2023-03-03T22:31:00;5.80;99.90
354;DHT22;165;53.592;10.044;2023-03-03T22:33:25;5.80;99.90
354;DHT22;165;53.592;10.044;2023-03-03T22:35:51;5.70;99.90
354;DHT22;165;53.592;10.044;2023-03-03T22:38:16;5.80;99.90
354;DHT22;165;53.592;10.044;2023-03-03T22:40:42;5.80;99.90
354;DHT22;165;53.592;10.044;2023-03-03T22:43:08;5.80;99.90
354;DHT22;165;53.592;10.044;2023-03-03T22:45:33;5.80;99.90
354;DHT22;165;53.592;10.044;2023-03-03T22:47:58;5.80;99.90
354;DHT22;165;53.592;10.044;2023-03-03T22:50:24;5.80;99.90
354;DHT22;165;53.592;10.044;2023-03-03T22:52:49;5.80;99.90
354;DHT22;165;53.592;10.044;2023-03-03T22:55:15;5.80;99.90
354;DHT22;165;53.592;10.044;2023-03-03T22:57:40;5.80;99.90
354;DHT22;165;53.592;10.044;2023-03-03T23:00:08;5.80;99.90
354;DHT22;165;53.592;10.044;2023-03-03T23:02:34;5.80;99.90
354;DHT22;165;53.592;10.044;2023-03-03T23:04:59;5.80;99.90
354;DHT22;165;53.592;10.044;2023-03-03T23:07:25;5.80;99.90
354;DHT22;165;53.592;10.044;2023-03-03T23:09:50;5.80;99.90
354;DHT22;165;53.592;10.044;2023-03-03T23:12:16;5.80;99.90
354;DHT22;165;53.592;10.044;2023-03-03T23:14:41;5.90;99.90
354;DHT22;165;53.592;10.044;2023-03-03T23:17:07;5.80;99.90
354;DHT22;165;53.592;10.044;2023-03-03T23:19:32;5.90;99.90
354;DHT22;165;53.592;10.044;2023-03-03T23:21:58;5.90;99.90
354;DHT22;165;53.592;10.044;2023-03-03T23:24:23;5.90;99.90
354;DHT22;165;53.592;10.044;2023-03-03T23:26:49;5.90;99.90
354;DHT22;165;53.592;10.044;2023-03-03T23:29:14;5.90;99.90
354;DHT22;165;53.592;10.044;2023-03-03T23:31:39;6.00;99.90
354;DHT22;165;53.592;10.044;2023-03-03T23:34:05;6.00;99.90
354;DHT22;165;53.592;10.044;2023-03-03T23:36:31;6.00;99.90
354;DHT22;165;53.592;10.044;2023-03-03T23:39:01;6.00;99.90
354;DHT22;165;53.592;10.044;2023-03-03T23:41:27;6.00;99.90
354;DHT22;165;53.592;10.044;2023-03-03T23:43:53;6.00;99.90
354;DHT22;165;53.592;10.044;2023-03-03T23:46:18;6.00;99.90
354;DHT22;165;53.592;10.044;2023-03-03T23:48:44;6.00;99.90
354;DHT22;165;53.592;10.044;2023-03-03T23:51:09;6.00;99.90
354;DHT22;165;53.592;10.044;2023-03-03T23:53:35;6.00;99.90
354;DHT22;165;53.592;10.044;2023-03-03T23:56:00;6.00;99.90
354;DHT22;165;53.592;10.044;2023-03-03T23:58:26;6.00;99.90
